createdAt,value
2022-11-26T00:39:42.260Z,100461.83
2022-11-26T00:42:14.764Z,100462.56
2022-11-26T00:44:47.218Z,100464.95
2022-11-26T00:47:19.665Z,100469.34
2022-11-26T00:49:51.972Z,100468.00
2022-11-26T00:52:35.834Z,100465.02
2022-11-26T00:55:13.275Z,100468.24
2022-11-26T00:57:45.936Z,100469.58
2022-11-26T01:00:25.599Z,100467.44
2022-11-26T01:02:58.151Z,100474.22
2022-11-26T01:05:33.808Z,100475.98
2022-11-26T01:08:20.590Z,100473.59
2022-11-26T01:10:53.402Z,100475.81
2022-11-26T01:13:26.050Z,100472.34
2022-11-26T01:16:18.646Z,100470.92
2022-11-26T01:18:52.342Z,100470.45
2022-11-26T01:21:26.502Z,100466.36
2022-11-26T01:23:59.028Z,100465.71
2022-11-26T01:26:39.777Z,100466.59
2022-11-26T01:29:19.454Z,100462.19
2022-11-26T01:31:51.924Z,100458.79
2022-11-26T01:34:24.482Z,100464.23
2022-11-26T01:36:57.080Z,100463.43
2022-11-26T01:39:29.719Z,100463.05
2022-11-26T01:42:33.982Z,100460.94
2022-11-26T01:45:17.477Z,100454.32
2022-11-26T01:47:49.897Z,100460.52
2022-11-26T01:50:36.278Z,100463.92
2022-11-26T01:53:24.671Z,100476.05
2022-11-26T01:56:07.091Z,100469.80
2022-11-26T01:58:43.792Z,100461.93
2022-11-26T02:01:16.338Z,100465.56
2022-11-26T02:04:05.380Z,100465.56
2022-11-26T02:06:38.530Z,100466.83
2022-11-26T02:09:11.995Z,100465.41
2022-11-26T02:11:44.376Z,100465.25
2022-11-26T02:14:21.509Z,100467.77
2022-11-26T02:17:25.351Z,100472.89
2022-11-26T02:20:28.994Z,100476.98
2022-11-26T02:23:25.345Z,100479.91
2022-11-26T02:26:35.334Z,100480.60
2022-11-26T02:29:16.331Z,100487.38
2022-11-26T02:32:01.704Z,100490.70
2022-11-26T02:34:47.438Z,100485.66
2022-11-26T02:37:32.597Z,100496.38
2022-11-26T02:40:05.405Z,100499.67
2022-11-26T02:42:39.576Z,100502.27
2022-11-26T02:45:23.904Z,100499.59
2022-11-26T02:47:58.644Z,100503.31
2022-11-26T02:50:41.822Z,100507.79
2022-11-26T02:53:15.327Z,100515.52
2022-11-26T02:55:52.617Z,100524.89
2022-11-26T02:58:25.063Z,100521.52
2022-11-26T03:00:58.680Z,100528.83
2022-11-26T03:03:37.335Z,100525.77
2022-11-26T03:06:12.012Z,100524.50
2022-11-26T03:08:45.892Z,100527.27
2022-11-26T03:11:18.402Z,100533.42
2022-11-26T03:13:52.678Z,100527.64
2022-11-26T03:16:26.037Z,100530.89
2022-11-26T03:18:58.356Z,100531.44
2022-11-26T03:21:33.520Z,100529.22
2022-11-26T03:24:05.377Z,100533.31
2022-11-26T03:26:37.672Z,100528.45
2022-11-26T03:29:09.991Z,100533.88
2022-11-26T03:31:42.328Z,100526.30
2022-11-26T03:34:14.864Z,100529.06
2022-11-26T03:36:48.396Z,100530.41
2022-11-26T03:39:20.915Z,100535.22
2022-11-26T03:41:53.342Z,100525.62
2022-11-26T03:44:26.063Z,100525.20
2022-11-26T03:46:58.754Z,100538.13
2022-11-26T03:49:31.406Z,100542.22
2022-11-26T03:52:04.765Z,100538.74
2022-11-26T03:54:37.618Z,100546.97
2022-11-26T03:57:10.212Z,100542.45
2022-11-26T03:59:42.885Z,100544.98
2022-11-26T04:02:15.249Z,100546.81
2022-11-26T04:04:48.127Z,100544.21
2022-11-26T04:07:20.619Z,100548.69
2022-11-26T04:09:53.302Z,100545.86
2022-11-26T04:12:25.841Z,100545.47
2022-11-26T04:14:58.314Z,100553.66
2022-11-26T04:17:30.739Z,100549.80
2022-11-26T04:20:03.280Z,100552.47
2022-11-26T04:22:36.006Z,100554.66
2022-11-26T04:25:08.968Z,100561.20
2022-11-26T04:27:41.432Z,100561.12
2022-11-26T04:30:15.694Z,100563.34
2022-11-26T04:32:48.537Z,100563.34
2022-11-26T04:35:20.939Z,100562.31
2022-11-26T04:37:53.351Z,100562.73
2022-11-26T04:40:25.756Z,100556.11
2022-11-26T04:42:58.177Z,100557.91
2022-11-26T04:45:31.257Z,100560.13
2022-11-26T04:48:04.016Z,100562.55
2022-11-26T04:50:36.794Z,100567.21
2022-11-26T04:53:09.364Z,100571.08
2022-11-26T04:55:42.949Z,100567.21
2022-11-26T04:58:15.588Z,100573.38
2022-11-26T05:00:51.128Z,100574.14
2022-11-26T05:03:22.791Z,100576.28
2022-11-26T05:05:55.185Z,100583.05
2022-11-26T05:08:27.759Z,100582.67
2022-11-26T05:11:01.745Z,100582.33
2022-11-26T05:13:34.836Z,100587.08
2022-11-26T05:16:08.067Z,100590.06
2022-11-26T05:18:40.649Z,100597.95
2022-11-26T05:21:13.619Z,100599.13
2022-11-26T05:23:46.261Z,100604.64
2022-11-26T05:26:19.495Z,100602.58
2022-11-26T05:28:52.400Z,100606.37
2022-11-26T05:31:24.905Z,100607.78
2022-11-26T05:33:58.484Z,100618.11
2022-11-26T05:36:30.766Z,100618.58
2022-11-26T05:39:03.226Z,100624.97
2022-11-26T05:41:37.111Z,100628.03
2022-11-26T05:44:09.700Z,100627.72
2022-11-26T05:46:43.430Z,100631.81
2022-11-26T05:49:16.188Z,100629.78
2022-11-26T05:51:48.655Z,100626.45
2022-11-26T05:54:21.214Z,100632.20
2022-11-26T05:56:58.611Z,100628.11
2022-11-26T05:59:27.509Z,100628.83
2022-11-26T06:02:00.360Z,100632.47
2022-11-26T06:04:32.877Z,100646.39
2022-11-26T06:07:05.564Z,100638.36
2022-11-26T06:09:39.314Z,100646.78
2022-11-26T06:12:12.253Z,100649.08
2022-11-26T06:14:45.379Z,100656.66
2022-11-26T06:17:19.030Z,100660.03
2022-11-26T06:19:51.353Z,100658.53
2022-11-26T06:22:24.127Z,100657.44
2022-11-26T06:24:56.655Z,100660.84
2022-11-26T06:27:30.198Z,100658.77
2022-11-26T06:30:04.033Z,100663.97
2022-11-26T06:32:36.763Z,100659.49
2022-11-26T06:35:10.444Z,100663.52
2022-11-26T06:37:43.234Z,100661.78
2022-11-26T06:40:20.545Z,100659.95
2022-11-26T06:42:53.680Z,100661.60
2022-11-26T06:45:26.156Z,100674.47
2022-11-26T06:47:58.783Z,100674.23
2022-11-26T06:50:31.250Z,100674.37
2022-11-26T06:53:04.342Z,100678.47
2022-11-26T06:55:47.784Z,100681.76
2022-11-26T06:58:20.803Z,100680.69
2022-11-26T07:00:53.092Z,100680.62
2022-11-26T07:03:32.008Z,100683.68
2022-11-26T07:06:01.109Z,100686.97
2022-11-26T07:08:34.007Z,100681.15
2022-11-26T07:11:07.384Z,100682.41
2022-11-26T07:13:40.002Z,100683.52
2022-11-26T07:16:12.843Z,100685.16
2022-11-26T07:18:50.423Z,100692.09
2022-11-26T07:21:23.102Z,100693.52
2022-11-26T07:23:56.656Z,100690.55
2022-11-26T07:26:29.284Z,100695.22
2022-11-26T07:29:01.653Z,100696.14
2022-11-26T07:31:36.257Z,100701.03
2022-11-26T07:34:08.350Z,100698.28
2022-11-26T07:36:42.461Z,100697.09
2022-11-26T07:39:14.986Z,100699.46
2022-11-26T07:41:47.500Z,100693.61
2022-11-26T07:44:20.020Z,100695.90
2022-11-26T07:46:52.771Z,100700.73
2022-11-26T07:49:25.172Z,100704.17
2022-11-26T07:51:57.689Z,100699.16
2022-11-26T07:54:30.081Z,100699.23
2022-11-26T07:57:02.567Z,100699.31
2022-11-26T07:59:36.065Z,100711.30
2022-11-26T08:02:12.187Z,100716.58
2022-11-26T08:04:44.827Z,100709.39
2022-11-26T08:07:24.376Z,100720.60
2022-11-26T08:09:51.689Z,100718.60
2022-11-26T08:12:24.847Z,100723.09
2022-11-26T08:14:57.233Z,100723.65
2022-11-26T08:17:30.047Z,100731.27
2022-11-26T08:20:02.516Z,100727.25
2022-11-26T08:22:35.051Z,100729.93
2022-11-26T08:25:09.169Z,100727.52
2022-11-26T08:27:41.646Z,100729.25
2022-11-26T08:30:14.606Z,100728.07
2022-11-26T08:32:47.019Z,100727.54
2022-11-26T08:35:21.118Z,100726.89
2022-11-26T08:37:53.624Z,100728.89
2022-11-26T08:40:26.034Z,100741.19
2022-11-26T08:42:58.428Z,100738.36
2022-11-26T08:45:31.135Z,100742.00
2022-11-26T08:48:04.036Z,100740.34
2022-11-26T08:50:37.996Z,100742.53
2022-11-26T08:53:10.531Z,100747.20
2022-11-26T08:55:59.854Z,100746.11
2022-11-26T08:58:17.102Z,100743.88
2022-11-26T09:00:49.681Z,100743.95
2022-11-26T09:03:22.075Z,100739.63
2022-11-26T09:05:54.643Z,100743.34
2022-11-26T09:08:28.031Z,100744.69
2022-11-26T09:11:00.552Z,100741.14
2022-11-26T09:13:33.240Z,100736.34
2022-11-26T09:16:05.961Z,100740.60
2022-11-26T09:18:38.656Z,100745.51
2022-11-26T09:21:11.158Z,100743.94
2022-11-26T09:23:45.078Z,100745.51
2022-11-26T09:26:19.224Z,100749.45
2022-11-26T09:28:52.018Z,100751.33
2022-11-26T09:31:26.022Z,100758.77
2022-11-26T09:34:01.980Z,100760.95
2022-11-26T09:36:34.502Z,100762.94
2022-11-26T09:39:07.792Z,100765.63
2022-11-26T09:42:07.344Z,100767.58
2022-11-26T09:44:44.662Z,100767.27
2022-11-26T09:47:42.942Z,100773.52
2022-11-26T09:50:26.497Z,100777.20
2022-11-26T09:53:14.208Z,100778.45
2022-11-26T09:55:52.540Z,100783.20
2022-11-26T09:58:57.790Z,100779.25
2022-11-26T10:01:32.064Z,100780.59
2022-11-26T10:04:03.913Z,100787.69
2022-11-26T10:07:13.109Z,100790.94
2022-11-26T10:10:09.232Z,100788.72
2022-11-26T10:13:17.905Z,100790.52
2022-11-26T10:15:40.719Z,100795.95
2022-11-26T10:18:43.525Z,100801.81
2022-11-26T10:21:57.272Z,100796.69
2022-11-26T10:24:21.745Z,100801.98
2022-11-26T10:26:54.049Z,100802.20
2022-11-26T10:29:35.900Z,100803.16
2022-11-26T10:32:26.952Z,100801.81
2022-11-26T10:35:00.099Z,100810.55
2022-11-26T10:37:32.558Z,100807.17
2022-11-26T10:40:32.520Z,100811.73
2022-11-26T10:43:13.136Z,100812.69
2022-11-26T10:45:52.702Z,100812.27
2022-11-26T10:48:28.781Z,100808.73
2022-11-26T10:51:26.662Z,100812.69
2022-11-26T10:54:02.579Z,100815.91
2022-11-26T10:56:44.191Z,100818.34
2022-11-26T10:59:40.083Z,100818.73
2022-11-26T11:02:27.058Z,100821.80
2022-11-26T11:05:02.333Z,100822.75
2022-11-26T11:07:43.079Z,100822.58
2022-11-26T11:10:19.488Z,100819.45
2022-11-26T11:13:04.464Z,100827.06
2022-11-26T11:15:40.616Z,100832.70
2022-11-26T11:18:20.404Z,100837.96
2022-11-26T11:26:25.626Z,100844.77
2022-11-26T11:28:58.301Z,100846.56
2022-11-26T11:31:30.903Z,100845.23
2022-11-26T11:34:26.331Z,100843.57
2022-11-26T11:37:17.230Z,100836.45
2022-11-26T11:40:15.851Z,100843.72
2022-11-26T11:42:52.014Z,100855.36
2022-11-26T11:45:36.118Z,100855.12
2022-11-26T11:48:33.039Z,100856.95
2022-11-26T11:51:26.646Z,100859.95
2022-11-26T11:54:16.005Z,100858.67
2022-11-26T11:56:56.998Z,100863.72
2022-11-26T12:00:13.758Z,100869.94
2022-11-26T12:02:50.538Z,100867.74
2022-11-26T12:05:36.967Z,100863.80
2022-11-26T12:08:42.923Z,100865.73
2022-11-26T12:11:35.040Z,100871.48
2022-11-26T12:14:23.960Z,100866.27
2022-11-26T12:17:35.432Z,100867.68
2022-11-26T12:20:12.767Z,100869.91
2022-11-26T12:22:59.454Z,100873.36
2022-11-26T12:25:38.163Z,100866.72
2022-11-26T12:28:22.541Z,100868.98
2022-11-26T12:31:06.049Z,100868.45
2022-11-26T12:34:12.841Z,100876.63
2022-11-26T12:36:59.732Z,100870.39
2022-11-26T12:39:52.025Z,100886.33
2022-11-26T12:43:04.587Z,100881.57
2022-11-26T12:45:54.286Z,100880.20
2022-11-26T12:49:02.524Z,100884.34
2022-11-26T12:51:45.735Z,100885.47
2022-11-26T12:54:33.334Z,100883.75
2022-11-26T12:57:27.974Z,100888.23
2022-11-26T13:00:11.300Z,100892.39
2022-11-26T13:02:51.014Z,100898.39
2022-11-26T13:05:51.833Z,100903.30
2022-11-26T13:08:40.697Z,100905.66
2022-11-26T13:11:43.431Z,100911.02
2022-11-26T13:14:42.051Z,100921.08
2022-11-26T13:17:16.392Z,100922.55
2022-11-26T13:20:17.384Z,100920.96
2022-11-26T13:23:15.989Z,100923.78
2022-11-26T13:26:02.065Z,100922.44
2022-11-26T13:29:07.821Z,100920.04
2022-11-26T13:31:48.443Z,100922.08
2022-11-26T13:34:51.393Z,100922.67
2022-11-26T13:38:02.165Z,100923.76
2022-11-26T13:41:02.079Z,100922.23
2022-11-26T13:44:15.584Z,100925.64
2022-11-26T13:47:07.447Z,100930.28
2022-11-26T13:50:02.814Z,100933.62
2022-11-26T13:52:46.113Z,100933.62
2022-11-26T13:55:26.831Z,100937.17
2022-11-26T13:58:01.563Z,100939.98
2022-11-26T14:00:35.737Z,100951.58
2022-11-26T14:03:09.637Z,100952.50
2022-11-26T14:05:57.532Z,100957.47
2022-11-26T14:08:45.083Z,100956.13
2022-11-26T14:11:50.495Z,100956.64
2022-11-26T14:14:32.222Z,100960.27
2022-11-26T14:17:09.619Z,100960.34
